Time;durP1;ratioP1;P1;durP2;ratioP2;P2;SDS_P1;SDS_P2;PMS_P1;PMS_P2;Temp;Humidity;BMP_temperature;BMP_pressure;BME280_temperature;BME280_humidity;BME280_pressure;Samples;Min_cycle;Max_cycle;Signal;HPM_P1;HPM_P2
2023/05/23 00:00:42;;;;;;;4.97;3.05;;;;;;;;;;4974043;28;20125;-81
2023/05/23 00:03:09;;;;;;;4.60;3.05;;;;;;;;;;4973627;28;20050;-81
2023/05/23 00:05:36;;;;;;;5.90;3.10;;;;;;;;;;4974063;28;20035;-81
2023/05/23 00:08:03;;;;;;;5.80;3.25;;;;;;;;;;4973960;28;20027;-81
2023/05/23 00:10:29;;;;;;;6.50;3.30;;;;;;;;;;4973803;28;20064;-81
2023/05/23 00:12:56;;;;;;;7.40;3.65;;;;;;;;;;4973584;28;20027;-81
2023/05/23 00:15:23;;;;;;;5.45;2.83;;;;;;;;;;4974127;28;20445;-81
2023/05/23 00:17:50;;;;;;;4.90;3.40;;;;;;;;;;4973944;28;20371;-81
2023/05/23 00:20:16;;;;;;;5.82;3.50;;;;;;;;;;4974019;28;20126;-81
2023/05/23 00:22:43;;;;;;;7.35;3.78;;;;;;;;;;4973750;28;20038;-81
2023/05/23 00:25:09;;;;;;;6.28;3.60;;;;;;;;;;4973332;28;20485;-81
2023/05/23 00:27:36;;;;;;;5.00;3.60;;;;;;;;;;4973510;28;20098;-81
2023/05/23 00:30:03;;;;;;;5.10;3.28;;;;;;;;;;4973539;28;20138;-81
2023/05/23 00:32:29;;;;;;;5.85;3.72;;;;;;;;;;4973781;28;20433;-81
2023/05/23 00:34:55;;;;;;;6.00;3.13;;;;;;;;;;4973373;28;20062;-81
2023/05/23 00:37:21;;;;;;;7.43;3.33;;;;;;;;;;4973396;28;20031;-82
2023/05/23 00:39:48;;;;;;;5.85;2.97;;;;;;;;;;4973258;28;20520;-81
2023/05/23 00:42:14;;;;;;;6.60;3.03;;;;;;;;;;4973343;28;20035;-81
2023/05/23 00:44:40;;;;;;;7.40;3.80;;;;;;;;;;4973218;28;20081;-81
2023/05/23 00:47:06;;;;;;;6.82;3.25;;;;;;;;;;4973270;28;20428;-81
2023/05/23 00:49:32;;;;;;;5.60;3.40;;;;;;;;;;4973279;28;20178;-81
2023/05/23 00:51:59;;;;;;;3.97;3.00;;;;;;;;;;4975996;28;20062;-81
2023/05/23 00:54:30;;;;;;;9.15;3.38;;;23.20;56.00;;;;;;4977211;28;20037;-80
2023/05/23 00:56:56;;;;;;;5.78;3.83;;;;;;;;;;4977370;28;20109;-80
2023/05/23 00:59:24;;;;;;;6.97;3.33;;;23.10;61.30;;;;;;4977186;28;20041;-80
2023/05/23 01:01:51;;;;;;;4.47;3.08;;;23.10;59.80;;;;;;4976755;28;20069;-79
2023/05/23 01:04:18;;;;;;;4.55;3.50;;;;;;;;;;4977221;28;20055;-81
2023/05/23 01:06:45;;;;;;;6.00;2.97;;;;;;;;;;4976918;28;20030;-81
2023/05/23 01:09:13;;;;;;;4.63;3.08;;;23.10;61.50;;;;;;4976893;28;20122;-81
2023/05/23 01:11:47;;;;;;;6.90;3.15;;;23.00;56.00;;;;;;4976988;28;20035;-81
2023/05/23 01:14:19;;;;;;;4.38;3.10;;;23.00;61.70;;;;;;4976838;28;20034;-81
2023/05/23 01:17:00;;;;;;;4.78;2.92;;;23.00;56.10;;;;;;4959604;28;20029;-81
2023/05/23 01:19:37;;;;;;;4.88;3.22;;;23.00;56.10;;;;;;4977058;28;20027;-81
2023/05/23 01:22:15;;;;;;;5.95;3.38;;;23.00;61.60;;;;;;4976613;28;20026;-81
2023/05/23 01:24:42;;;;;;;5.80;2.88;;;;;;;;;;4976628;28;20023;-81
2023/05/23 01:27:39;;;;;;;5.60;3.13;;;22.90;61.60;;;;;;4976759;28;20089;-81
2023/05/23 01:30:08;;;;;;;4.18;3.05;;;22.90;61.50;;;;;;4976119;28;20082;-81
2023/05/23 01:32:35;;;;;;;7.10;3.47;;;;;;;;;;4976418;28;20139;-81
2023/05/23 01:35:01;;;;;;;4.25;3.00;;;;;;;;;;4976669;28;20047;-81
2023/05/23 01:37:28;;;;;;;4.78;3.13;;;;;;;;;;4976466;28;20105;-81
2023/05/23 01:39:54;;;;;;;4.93;2.85;;;;;;;;;;4976359;28;20034;-81
2023/05/23 01:42:20;;;;;;;4.10;3.00;;;;;;;;;;4976392;28;20035;-81
2023/05/23 01:44:46;;;;;;;7.03;3.30;;;;;;;;;;4976249;28;20386;-81
2023/05/23 01:47:14;;;;;;;5.53;3.20;;;22.90;61.70;;;;;;4976291;28;20500;-81
2023/05/23 01:49:43;;;;;;;4.10;3.13;;;22.80;61.60;;;;;;4976074;28;20050;-80
2023/05/23 01:52:10;;;;;;;4.75;2.83;;;;;;;;;;4976026;28;20374;-81
2023/05/23 01:54:37;;;;;;;6.30;3.25;;;22.80;59.40;;;;;;4976207;28;20441;-81
2023/05/23 01:57:04;;;;;;;5.18;2.85;;;22.80;60.20;;;;;;4975901;28;20478;-81
2023/05/23 01:59:31;;;;;;;5.10;3.33;;;;;;;;;;4976310;28;20418;-80
2023/05/23 02:01:57;;;;;;;4.38;2.60;;;;;;;;;;4974798;28;20023;-80
2023/05/23 02:04:24;;;;;;;3.25;2.53;;;;;;;;;;4975710;28;20393;-81
2023/05/23 02:06:50;;;;;;;4.25;3.25;;;;;;;;;;4975912;28;20069;-81
2023/05/23 02:09:16;;;;;;;3.00;2.42;;;;;;;;;;4958556;28;20039;-81
2023/05/23 02:11:43;;;;;;;6.97;3.20;;;;;;;;;;4975712;28;20046;-80
2023/05/23 02:14:09;;;;;;;4.88;3.08;;;;;;;;;;4975759;28;20501;-81
2023/05/23 02:16:35;;;;;;;4.53;3.05;;;;;;;;;;4975738;28;20030;-81
2023/05/23 02:19:02;;;;;;;5.72;3.10;;;;;;;;;;4975642;28;20050;-81
2023/05/23 02:21:28;;;;;;;5.43;3.15;;;;;;;;;;4975764;28;20049;-81
2023/05/23 02:23:55;;;;;;;7.03;2.88;;;;;;;;;;4975733;28;20034;-81
2023/05/23 02:26:21;;;;;;;5.40;2.72;;;;;;;;;;4975428;28;20511;-75
2023/05/23 02:28:47;;;;;;;5.88;3.17;;;;;;;;;;4975685;28;20039;-75
2023/05/23 02:31:14;;;;;;;3.25;2.83;;;;;;;;;;4975461;28;20382;-75
2023/05/23 02:33:40;;;;;;;4.10;3.10;;;;;;;;;;4975408;28;20034;-75
2023/05/23 02:36:07;;;;;;;5.30;3.05;;;;;;;;;;4975166;28;20031;-75
2023/05/23 02:38:33;;;;;;;4.93;2.92;;;;;;;;;;4975459;28;20381;-75
2023/05/23 02:40:59;;;;;;;4.75;2.95;;;;;;;;;;4975142;28;20030;-75
2023/05/23 02:43:25;;;;;;;6.15;3.05;;;;;;;;;;4975372;28;20444;-75
2023/05/23 02:45:51;;;;;;;5.45;3.20;;;;;;;;;;4975083;28;20031;-74
2023/05/23 02:48:17;;;;;;;5.10;2.90;;;;;;;;;;4975000;28;20027;-75
2023/05/23 02:50:43;;;;;;;5.00;2.75;;;;;;;;;;4975005;28;20030;-75
2023/05/23 02:53:10;;;;;;;5.88;3.20;;;;;;;;;;4975379;28;20033;-75
2023/05/23 02:55:37;;;;;;;5.40;2.80;;;;;;;;;;4975251;28;20181;-75
2023/05/23 02:58:04;;;;;;;5.03;2.83;;;;;;;;;;4975310;28;20473;-75
2023/05/23 03:00:31;;;;;;;6.85;3.53;;;;;;;;;;4975277;28;20050;-76
2023/05/23 03:02:57;;;;;;;4.30;2.65;;;;;;;;;;4975950;28;20042;-81
2023/05/23 03:05:24;;;;;;;5.95;2.97;;;;;;;;;;4974955;28;20039;-80
2023/05/23 03:07:51;;;;;;;5.40;2.72;;;;;;;;;;4975227;28;20027;-81
2023/05/23 03:10:17;;;;;;;6.93;2.97;;;;;;;;;;4975101;28;20050;-81
2023/05/23 03:12:44;;;;;;;4.82;2.97;;;;;;;;;;4975313;28;20434;-81
2023/05/23 03:15:10;;;;;;;4.93;2.78;;;;;;;;;;4974989;28;20119;-80
2023/05/23 03:17:37;;;;;;;5.15;3.20;;;;;;;;;;4975141;28;20027;-81
2023/05/23 03:20:04;;;;;;;6.00;2.97;;;;;;;;;;4975089;28;20030;-81
2023/05/23 03:22:31;;;;;;;5.68;3.17;;;;;;;;;;4974921;28;20436;-80
2023/05/23 03:24:57;;;;;;;6.65;3.53;;;;;;;;;;4974633;28;20529;-80
2023/05/23 03:27:23;;;;;;;8.18;3.40;;;;;;;;;;4974379;28;20034;-80
2023/05/23 03:29:50;;;;;;;4.50;2.75;;;;;;;;;;4974851;28;20042;-80
2023/05/23 03:32:17;;;;;;;5.55;3.30;;;;;;;;;;4974757;28;20029;-80
2023/05/23 03:34:43;;;;;;;6.68;3.03;;;;;;;;;;4974649;28;20027;-80
2023/05/23 03:37:10;;;;;;;9.52;3.53;;;;;;;;;;4974697;28;20031;-79
2023/05/23 03:39:36;;;;;;;5.30;2.92;;;;;;;;;;4974690;28;20097;-80
2023/05/23 03:42:02;;;;;;;4.90;2.92;;;;;;;;;;4974294;28;20027;-80
2023/05/23 03:44:28;;;;;;;5.90;3.50;;;;;;;;;;4974514;28;20394;-80
2023/05/23 03:46:55;;;;;;;6.68;3.38;;;;;;;;;;4974583;28;20027;-80
2023/05/23 03:49:21;;;;;;;6.95;2.92;;;;;;;;;;4974274;28;20169;-80
2023/05/23 03:51:48;;;;;;;8.50;2.75;;;;;;;;;;4974415;28;20031;-80
2023/05/23 03:54:16;;;;;;;6.32;2.88;;;;;;;;;;4956954;28;20031;-81
2023/05/23 03:56:42;;;;;;;5.03;2.72;;;;;;;;;;4974181;28;20027;-75
2023/05/23 03:59:08;;;;;;;6.63;3.05;;;;;;;;;;4973605;28;20174;-75
2023/05/23 04:01:35;;;;;;;6.10;2.92;;;;;;;;;;4973460;28;20478;-76
2023/05/23 04:04:01;;;;;;;6.07;2.80;;;;;;;;;;4973528;28;20375;-75
2023/05/23 04:06:30;;;;;;;5.72;2.83;;;;;;;;;;4973747;28;20037;-75
2023/05/23 04:08:56;;;;;;;7.75;3.22;;;;;;;;;;4973670;28;20053;-75
2023/05/23 04:11:23;;;;;;;6.72;2.97;;;;;;;;;;4973787;28;20035;-75
2023/05/23 04:13:50;;;;;;;6.30;3.15;;;;;;;;;;4973746;28;20089;-75
2023/05/23 04:16:17;;;;;;;5.15;2.95;;;;;;;;;;4973812;28;20085;-75
2023/05/23 04:18:46;;;;;;;3.70;2.80;;;;;;;;;;4973408;28;20110;-75
2023/05/23 04:21:12;;;;;;;5.65;2.55;;;;;;;;;;4973689;28;20034;-75
2023/05/23 04:23:39;;;;;;;8.65;3.25;;;;;;;;;;4973473;28;20031;-75
2023/05/23 04:26:05;;;;;;;5.00;3.13;;;;;;;;;;4972939;28;20385;-75
2023/05/23 04:28:31;;;;;;;6.63;2.80;;;;;;;;;;4973596;28;20113;-75
2023/05/23 04:30:58;;;;;;;7.53;2.65;;;;;;;;;;4973276;28;20547;-75
2023/05/23 04:33:25;;;;;;;6.97;3.13;;;;;;;;;;4973422;28;20053;-75
2023/05/23 04:35:51;;;;;;;6.25;2.83;;;;;;;;;;4973392;28;20058;-75
2023/05/23 04:38:17;;;;;;;5.60;2.78;;;;;;;;;;4955900;28;20448;-75
2023/05/23 04:40:43;;;;;;;6.88;3.22;;;;;;;;;;4973139;28;20038;-75
2023/05/23 04:43:13;;;;;;;8.40;2.95;;;;;;;;;;4973095;28;20490;-75
2023/05/23 04:45:40;;;;;;;6.38;2.88;;;;;;;;;;4956839;28;20389;-75
2023/05/23 04:48:07;;;;;;;4.40;2.78;;;;;;;;;;4973397;28;20441;-75
2023/05/23 04:50:34;;;;;;;4.13;2.53;;;;;;;;;;4973307;28;20035;-75
2023/05/23 04:53:01;;;;;;;6.47;2.80;;;;;;;;;;4973377;28;20429;-75
2023/05/23 04:55:27;;;;;;;5.13;2.55;;;;;;;;;;4973117;28;20034;-75
2023/05/23 04:57:54;;;;;;;6.38;3.15;;;;;;;;;;4973268;28;20031;-75
2023/05/23 05:00:20;;;;;;;4.18;2.45;;;;;;;;;;4973342;28;20053;-75
2023/05/23 05:02:47;;;;;;;5.60;3.05;;;;;;;;;;4972874;28;20070;-75
2023/05/23 05:05:13;;;;;;;7.50;3.13;;;;;;;;;;4973010;28;20050;-75
2023/05/23 05:07:39;;;;;;;5.30;2.83;;;;;;;;;;4972863;28;20031;-75
2023/05/23 05:10:06;;;;;;;5.22;3.33;;;;;;;;;;4973251;28;20035;-75
2023/05/23 05:12:33;;;;;;;5.63;3.35;;;;;;;;;;4972878;28;20482;-75
2023/05/23 05:14:59;;;;;;;4.80;3.35;;;;;;;;;;4973084;28;20030;-75
2023/05/23 05:17:26;;;;;;;4.20;3.00;;;;;;;;;;4973102;28;20099;-76
2023/05/23 05:19:53;;;;;;;6.97;3.28;;;;;;;;;;4972865;28;20481;-75
2023/05/23 05:22:19;;;;;;;6.60;3.03;;;;;;;;;;4972821;28;20066;-76
2023/05/23 05:24:45;;;;;;;9.27;3.90;;;;;;;;;;4972786;28;20496;-75
2023/05/23 05:27:11;;;;;;;8.45;6.82;;;;;;;;;;4972826;28;20078;-75
2023/05/23 05:29:37;;;;;;;12.18;8.05;;;;;;;;;;4972850;28;20038;-74
2023/05/23 05:32:03;;;;;;;11.50;8.27;;;;;;;;;;4972702;28;20031;-74
2023/05/23 05:34:29;;;;;;;10.05;9.00;;;;;;;;;;4972818;28;20034;-76
2023/05/23 05:36:55;;;;;;;11.93;9.38;;;;;;;;;;4973746;28;20034;-74
2023/05/23 05:39:24;;;;;;;11.65;8.68;;;21.70;62.80;;;;;;4976214;28;20110;-76
2023/05/23 05:41:50;;;;;;;11.75;8.88;;;;;;;;;;4976478;28;20023;-76
2023/05/23 05:44:17;;;;;;;12.32;8.63;;;;;;;;;;4976578;28;20030;-76
2023/05/23 05:46:43;;;;;;;11.52;8.05;;;;;;;;;;4976794;28;20031;-76
2023/05/23 05:49:09;;;;;;;11.13;7.22;;;;;;;;;;4976276;28;20033;-75
2023/05/23 05:51:35;;;;;;;11.23;7.03;;;;;;;;;;4976281;28;20058;-76
2023/05/23 05:54:02;;;;;;;11.30;6.80;;;;;;;;;;4976290;28;20037;-77
2023/05/23 05:56:28;;;;;;;10.00;6.70;;;;;;;;;;4976261;28;20358;-75
2023/05/23 05:58:55;;;;;;;8.60;6.35;;;;;;;;;;4975948;28;20026;-75
2023/05/23 06:01:22;;;;;;;8.90;5.90;;;;;;;;;;4976197;28;20031;-76
2023/05/23 06:03:48;;;;;;;8.40;5.60;;;;;;;;;;4976068;28;20050;-77
2023/05/23 06:06:15;;;;;;;9.30;5.97;;;;;;;;;;4976398;28;20397;-76
2023/05/23 06:08:42;;;;;;;6.45;5.15;;;21.70;60.00;;;;;;4976120;28;20050;-76
2023/05/23 06:11:08;;;;;;;7.32;5.00;;;;;;;;;;4975761;28;20074;-77
2023/05/23 06:13:35;;;;;;;8.55;4.95;;;;;;;;;;4958817;28;20477;-76
2023/05/23 06:16:01;;;;;;;8.82;5.05;;;;;;;;;;4976044;28;20031;-76
2023/05/23 06:18:28;;;;;;;10.07;4.90;;;;;;;;;;4975872;28;20401;-76
2023/05/23 06:20:54;;;;;;;7.90;4.57;;;;;;;;;;4975532;28;20039;-76
2023/05/23 06:23:20;;;;;;;5.63;4.35;;;;;;;;;;4958519;28;20043;-76
2023/05/23 06:25:46;;;;;;;7.15;4.38;;;;;;;;;;4958326;28;20027;-79
2023/05/23 06:28:12;;;;;;;5.68;3.53;;;;;;;;;;4958341;28;20493;-76
2023/05/23 06:30:38;;;;;;;5.55;3.90;;;;;;;;;;4958123;28;20142;-75
2023/05/23 06:33:05;;;;;;;9.75;3.80;;;;;;;;;;4958546;28;20101;-76
2023/05/23 06:35:31;;;;;;;11.10;4.40;;;;;;;;;;4975249;28;20037;-75
2023/05/23 06:37:57;;;;;;;8.00;3.55;;;;;;;;;;4975667;28;20037;-75
2023/05/23 06:40:23;;;;;;;5.60;3.05;;;;;;;;;;4975241;28;20022;-77
2023/05/23 06:42:49;;;;;;;5.63;3.30;;;;;;;;;;4975422;28;20455;-77
2023/05/23 06:45:16;;;;;;;6.97;3.28;;;;;;;;;;4975061;28;20474;-76
2023/05/23 06:47:46;;;;;;;8.35;3.22;;;;;;;;;;4974976;28;20026;-76
2023/05/23 06:50:13;;;;;;;8.75;3.33;;;;;;;;;;4974602;28;20039;-74
2023/05/23 06:52:41;;;;;;;6.13;3.42;;;;;;;;;;4974789;28;20034;-75
2023/05/23 06:55:08;;;;;;;7.15;3.55;;;;;;;;;;4975166;28;20082;-76
2023/05/23 06:57:34;;;;;;;7.38;2.95;;;;;;;;;;4974923;28;20035;-76
2023/05/23 07:00:00;;;;;;;5.85;3.17;;;;;;;;;;4975049;28;20031;-76
2023/05/23 07:02:26;;;;;;;5.53;2.90;;;;;;;;;;4974666;28;20098;-75
2023/05/23 07:04:52;;;;;;;7.18;2.90;;;;;;;;;;4974759;28;20102;-77
2023/05/23 07:07:18;;;;;;;8.77;3.08;;;;;;;;;;4974702;28;20162;-76
2023/05/23 07:09:44;;;;;;;6.07;2.97;;;;;;;;;;4974631;28;20046;-76
2023/05/23 07:12:10;;;;;;;7.40;3.13;;;;;;;;;;4974738;28;20035;-76
2023/05/23 07:14:37;;;;;;;5.03;2.55;;;;;;;;;;4974835;28;20139;-75
2023/05/23 07:17:03;;;;;;;6.75;2.88;;;;;;;;;;4974506;28;20019;-76
2023/05/23 07:19:29;;;;;;;5.63;2.88;;;;;;;;;;4974665;28;20035;-76
2023/05/23 07:21:54;;;;;;;4.55;2.55;;;;;;;;;;4974518;28;20034;-77
2023/05/23 07:24:21;;;;;;;6.10;2.78;;;;;;;;;;4974567;28;20101;-76
2023/05/23 07:26:47;;;;;;;4.35;2.63;;;;;;;;;;4957355;28;20054;-77
2023/05/23 07:29:14;;;;;;;4.40;2.60;;;;;;;;;;4974269;28;20101;-76
2023/05/23 07:31:40;;;;;;;5.28;2.45;;;;;;;;;;4974518;28;20037;-76
2023/05/23 07:34:07;;;;;;;5.40;2.92;;;;;;;;;;4974450;28;20031;-77
2023/05/23 07:36:34;;;;;;;4.97;2.95;;;;;;;;;;4973477;28;20034;-76
2023/05/23 07:39:01;;;;;;;7.78;2.78;;;;;;;;;;4974332;28;20441;-76
2023/05/23 07:41:27;;;;;;;3.70;2.28;;;;;;;;;;4974248;28;20402;-79
2023/05/23 07:43:54;;;;;;;4.78;2.30;;;;;;;;;;4974267;28;20055;-76
2023/05/23 07:46:21;;;;;;;4.28;2.33;;;;;;;;;;4974309;28;20031;-77
2023/05/23 07:48:48;;;;;;;4.80;2.20;;;;;;;;;;4974173;28;20042;-77
2023/05/23 07:51:14;;;;;;;4.30;2.28;;;;;;;;;;4974096;28;20027;-77
2023/05/23 07:53:41;;;;;;;6.05;2.85;;;;;;;;;;4974071;28;20035;-77
2023/05/23 07:56:07;;;;;;;5.35;2.25;;;;;;;;;;4974256;28;20034;-80
2023/05/23 07:58:33;;;;;;;3.75;2.08;;;;;;;;;;4973833;28;20500;-80
2023/05/23 08:01:00;;;;;;;7.15;2.85;;;;;;;;;;4974051;28;20050;-79
2023/05/23 08:03:26;;;;;;;5.18;1.95;;;;;;;;;;4973488;28;20544;-80
2023/05/23 08:05:53;;;;;;;6.70;2.20;;;;;;;;;;4973928;28;20027;-80
2023/05/23 08:08:19;;;;;;;3.80;2.17;;;;;;;;;;4956644;28;20035;-79
2023/05/23 08:10:46;;;;;;;7.22;2.38;;;;;;;;;;4956417;28;20042;-79
2023/05/23 08:13:12;;;;;;;4.55;2.03;;;;;;;;;;4956919;28;20023;-79
2023/05/23 08:15:38;;;;;;;5.70;1.90;;;;;;;;;;4956859;28;20043;-80
2023/05/23 08:18:05;;;;;;;5.47;2.03;;;;;;;;;;4956727;28;20033;-84
2023/05/23 08:20:31;;;;;;;3.10;1.65;;;;;;;;;;4956741;28;20049;-78
2023/05/23 08:22:58;;;;;;;6.15;2.28;;;;;;;;;;4977500;28;20027;-83
2023/05/23 08:25:29;;;;;;;5.78;2.30;;;;;;;;;;4975034;28;20038;-78
2023/05/23 08:27:57;;;;;;;5.18;1.88;;;21.50;62.70;;;;;;4973917;28;20046;-78
2023/05/23 08:30:24;;;;;;;6.28;1.80;;;;;;;;;;4973497;28;20035;-82
2023/05/23 08:32:54;;;;;;;6.78;2.03;;;18.90;61.20;;;;;;4974093;28;20101;-78
2023/05/23 08:35:21;;;;;;;6.70;1.83;;;;;;;;;;4973593;28;20054;-78
2023/05/23 08:37:48;;;;;;;6.03;1.70;;;;;;;;;;4978009;28;20051;-79
2023/05/23 08:40:22;;;;;;;3.25;1.42;;;21.50;57.90;;;;;;4975023;28;20042;-78
2023/05/23 08:42:49;;;;;;;7.03;1.75;;;21.60;63.10;;;;;;4979531;28;20122;-81
2023/05/23 08:45:16;;;;;;;5.60;2.10;;;21.50;61.40;;;;;;4975876;28;20133;-77
2023/05/23 08:47:46;;;;;;;3.58;1.83;;;;;;;;;;4973566;28;20027;-79
2023/05/23 08:50:13;;;;;;;;;;;21.60;57.70;;;;;;4974415;28;20043;-80
2023/05/23 08:52:58;;;;;;;6.90;2.10;;;21.70;57.90;;;;;;4973966;28;19969;-80
2023/05/23 08:55:29;;;;;;;4.47;1.80;;;21.60;63.20;;;;;;4973808;28;20027;-80
2023/05/23 08:58:00;;;;;;;6.32;2.17;;;22.10;63.50;;;;;;4974003;28;20027;-80
2023/05/23 09:00:27;;;;;;;4.25;2.10;;;21.70;62.50;;;;;;4974621;28;20022;-79
2023/05/23 09:02:53;;;;;;;4.45;1.77;;;;;;;;;;4973770;28;20053;-80
2023/05/23 09:05:20;;;;;;;4.65;1.60;;;;;;;;;;4974115;28;20389;-80
2023/05/23 09:07:47;;;;;;;6.80;2.08;;;;;;;;;;4973412;28;20054;-80
2023/05/23 09:10:16;;;;;;;4.20;1.70;;;21.80;63.90;;;;;;4973399;28;20066;-79
2023/05/23 09:12:42;;;;;;;5.50;1.63;;;;;;;;;;4975790;28;20046;-79
2023/05/23 09:15:09;;;;;;;4.93;2.00;;;;;;;;;;4977321;28;20116;-79
2023/05/23 09:17:39;;;;;;;7.18;1.95;;;;;;;;;;4977410;28;20034;-80
2023/05/23 09:20:14;;;;;;;7.68;2.30;;;21.90;57.50;;;;;;4977040;28;20030;-78
2023/05/23 09:22:40;;;;;;;4.28;1.60;;;;;;;;;;4977415;28;20398;-78
2023/05/23 09:25:07;;;;;;;5.07;1.70;;;;;;;;;;4977247;28;20030;-79
2023/05/23 09:27:35;;;;;;;6.00;1.65;;;22.10;63.00;;;;;;4977551;28;20023;-78
2023/05/23 09:30:09;;;;;;;4.55;1.50;;;22.20;57.50;;;;;;4977241;28;20034;-78
2023/05/23 09:32:35;;;;;;;4.68;2.03;;;;;;;;;;4976878;28;20031;-78
2023/05/23 09:35:04;;;;;;;5.53;1.98;;;22.20;63.00;;;;;;4976901;28;20377;-78
2023/05/23 09:37:36;;;;;;;5.28;1.80;;;22.20;61.40;;;;;;4977124;28;20026;-78
2023/05/23 09:40:09;;;;;;;5.32;1.50;;;22.10;57.10;;;;;;4977074;28;20050;-78
2023/05/23 09:42:36;;;;;;;3.38;1.50;;;;;;;;;;4977147;28;20015;-79
2023/05/23 09:45:02;;;;;;;9.02;2.05;;;;;;;;;;4976912;28;20031;-79
2023/05/23 09:47:28;;;;;;;3.58;1.60;;;;;;;;;;4976840;28;20529;-79
2023/05/23 09:49:55;;;;;;;4.63;1.60;;;;;;;;;;4976464;28;20050;-76
2023/05/23 09:52:21;;;;;;;4.82;1.70;;;;;;;;;;4976497;28;20023;-77
2023/05/23 09:54:48;;;;;;;6.13;1.98;;;;;;;;;;4976619;28;20085;-78
2023/05/23 09:57:16;;;;;;;6.00;2.28;;;22.40;62.80;;;;;;4976080;28;20027;-76
2023/05/23 09:59:50;;;;;;;4.10;1.77;;;22.20;62.90;;;;;;4976609;28;20111;-78
2023/05/23 10:02:30;;;;;;;4.35;1.63;;;22.40;62.90;;;;;;4975879;28;20502;-76
2023/05/23 10:04:56;;;;;;;5.25;1.80;;;22.40;60.60;;;;;;4976630;28;20027;-78
2023/05/23 10:07:22;;;;;;;4.60;1.88;;;;;;;;;;4976082;28;20030;-76
2023/05/23 10:10:01;;;;;;;5.82;2.03;;;22.40;62.80;;;;;;4975948;28;20492;-78
2023/05/23 10:12:32;;;;;;;6.30;1.98;;;;;;;;;;4959626;28;20037;-77
2023/05/23 10:15:04;;;;;;;6.28;2.08;;;22.60;55.80;;;;;;4975856;28;20042;-79
2023/05/23 10:17:50;;;;;;;6.60;2.20;;;22.50;57.20;;;;;;4975976;28;20089;-78
2023/05/23 10:20:19;;;;;;;5.55;1.80;;;22.60;58.80;;;;;;4975734;28;20477;-78
2023/05/23 10:22:45;;;;;;;5.88;2.00;;;;;;;;;;4975511;28;20019;-77
2023/05/23 10:25:12;;;;;;;6.72;2.08;;;;;;;;;;4975071;28;20035;-77
2023/05/23 10:27:39;;;;;;;8.13;1.95;;;;;;;;;;4975717;28;20113;-77
2023/05/23 10:30:07;;;;;;;4.72;1.75;;;22.70;60.10;;;;;;4975256;28;20046;-77
2023/05/23 10:32:34;;;;;;;5.07;1.75;;;22.70;61.50;;;;;;4975401;28;20034;-78
2023/05/23 10:35:18;;;;;;;5.55;2.03;;;22.70;56.50;;;;;;4975823;28;20047;-78
2023/05/23 10:37:58;;;;;;;6.22;2.53;;;22.70;62.50;;;;;;4975233;28;20034;-76
2023/05/23 10:40:24;;;;;;;6.50;1.90;;;;;;;;;;4975516;28;20143;-76
2023/05/23 10:42:58;;;;;;;6.68;2.45;;;22.70;62.00;;;;;;4975252;28;20041;-76
2023/05/23 10:45:24;;;;;;;8.43;2.35;;;;;;;;;;4975258;28;20077;-77
2023/05/23 10:47:51;;;;;;;6.65;1.90;;;22.70;62.10;;;;;;4975554;28;20117;-77
2023/05/23 10:50:31;;;;;;;6.35;2.22;;;22.70;56.40;;;;;;4975226;28;20062;-77
2023/05/23 10:53:02;;;;;;;6.50;1.80;;;22.80;62.00;;;;;;4975473;28;20054;-77
2023/05/23 10:55:32;;;;;;;8.02;2.30;;;23.90;62.60;;;;;;4975298;28;20026;-77
2023/05/23 10:58:20;;;;;;;7.00;2.28;;;22.90;56.00;;;;;;4975669;28;20092;-77
2023/05/23 11:00:54;;;;;;;8.40;2.35;;;22.90;55.90;;;;;;4975342;28;20119;-77
2023/05/23 11:03:35;;;;;;;5.90;2.05;;;23.00;55.70;;;;;;4974750;28;20047;-77
2023/05/23 11:06:03;;;;;;;10.00;2.03;;;23.00;61.40;;;;;;4975114;28;20031;-77
2023/05/23 11:08:37;;;;;;;6.10;2.00;;;23.00;61.50;;;;;;4974863;28;20362;-77
2023/05/23 11:11:04;;;;;;;8.90;2.15;;;;;;;;;;4974798;28;20039;-77
2023/05/23 11:14:01;;;;;;;6.80;2.28;;;23.00;56.20;;;;;;4975018;28;20425;-78
2023/05/23 11:16:28;;;;;;;7.40;2.30;;;;;;;;;;4975073;28;20418;-77
2023/05/23 11:19:18;;;;;;;4.63;2.30;;;23.10;56.30;;;;;;4974745;28;20042;-78
2023/05/23 11:21:56;;;;;;;4.75;1.92;;;23.20;56.60;;;;;;4974596;28;20057;-77
2023/05/23 11:24:23;;;;;;;9.95;1.83;;;23.10;58.50;;;;;;4974800;28;20418;-78
2023/05/23 11:27:00;;;;;;;7.72;2.10;;;23.20;56.00;;;;;;4974603;28;20043;-77
2023/05/23 11:29:28;;;;;;;5.30;2.08;;;23.10;61.40;;;;;;4974627;28;20045;-77
2023/05/23 11:31:55;;;;;;;6.30;2.10;;;23.20;58.70;;;;;;4974546;28;20022;-77
2023/05/23 11:34:22;;;;;;;6.03;2.28;;;23.30;59.20;;;;;;4974072;28;20075;-77
2023/05/23 11:36:53;;;;;;;5.40;2.17;;;23.50;60.50;;;;;;4974432;28;20023;-78
2023/05/23 11:39:20;;;;;;;6.43;2.63;;;;;;;;;;4974334;28;20053;-78
2023/05/23 11:41:59;;;;;;;6.32;1.90;;;23.70;59.40;;;;;;4974547;28;20038;-79
2023/05/23 11:44:25;;;;;;;5.40;2.22;;;;;;;;;;4974252;28;20381;-78
2023/05/23 11:47:02;;;;;;;5.30;2.10;;;23.80;53.30;;;;;;4974087;28;20031;-77
2023/05/23 11:49:34;;;;;;;7.90;1.85;;;23.80;59.20;;;;;;4974337;28;20382;-78
2023/05/23 11:52:01;;;;;;;6.55;2.00;;;23.90;59.30;;;;;;4974250;28;20035;-78
2023/05/23 11:54:28;;;;;;;5.55;1.88;;;;;;;;;;4974311;28;20029;-78
2023/05/23 11:56:54;;;;;;;4.93;1.90;;;24.00;56.90;;;;;;4973947;28;20027;-78
2023/05/23 11:59:21;;;;;;;5.07;1.83;;;24.00;56.40;;;;;;4974239;28;20106;-78
2023/05/23 12:01:48;;;;;;;3.58;1.77;;;;;;;;;;4973782;28;20114;-78
2023/05/23 12:04:14;;;;;;;3.60;1.92;;;;;;;;;;4973839;28;20063;-77
2023/05/23 12:06:40;;;;;;;4.97;1.60;;;;;;;;;;4973702;28;20116;-77
2023/05/23 12:09:10;;;;;;;4.82;1.98;;;24.20;57.80;;;;;;4973883;28;20383;-78
2023/05/23 12:11:36;;;;;;;4.93;1.50;;;;;;;;;;4973802;28;20050;-78
2023/05/23 12:14:05;;;;;;;4.25;1.60;;;;;;;;;;4974013;28;20089;-78
2023/05/23 12:16:35;;;;;;;4.93;1.40;;;24.20;58.00;;;;;;4973735;28;20363;-78
2023/05/23 12:19:03;;;;;;;5.63;1.60;;;24.20;58.10;;;;;;4973531;28;20027;-77
2023/05/23 12:21:45;;;;;;;3.20;1.50;;;24.30;53.10;;;;;;4973644;28;20103;-77
2023/05/23 12:24:19;;;;;;;3.55;1.80;;;24.30;57.80;;;;;;4973783;28;20041;-78
2023/05/23 12:26:51;;;;;;;7.97;2.00;;;24.50;58.70;;;;;;4973425;28;20477;-78
2023/05/23 12:29:26;;;;;;;4.75;1.80;;;24.50;52.50;;;;;;4973468;28;20485;-78
2023/05/23 12:31:53;;;;;;;6.55;2.10;;;;;;;;;;4973797;28;20029;-78
2023/05/23 12:34:20;;;;;;;3.70;1.55;;;24.40;54.80;;;;;;4973643;28;20041;-78
2023/05/23 12:36:48;;;;;;;3.45;1.52;;;;;;;;;;4973559;28;20056;-78
2023/05/23 12:39:14;;;;;;;4.47;1.90;;;;;;;;;;4973715;28;20058;-78
2023/05/23 12:41:44;;;;;;;2.88;1.42;;;24.50;51.20;;;;;;4973341;28;20030;-78
2023/05/23 12:44:10;;;;;;;5.68;1.48;;;;;;;;;;4973296;28;20027;-77
2023/05/23 12:46:36;;;;;;;4.95;1.55;;;;;;;;;;4972453;28;20532;-80
2023/05/23 12:49:03;;;;;;;6.63;2.15;;;;;;;;;;4973082;28;20062;-80
2023/05/23 12:51:29;;;;;;;6.00;1.95;;;;;;;;;;4973526;28;20063;-78
2023/05/23 12:53:56;;;;;;;3.90;1.45;;;;;;;;;;4973343;28;20030;-78
2023/05/23 12:56:22;;;;;;;5.38;1.73;;;;;;;;;;4973448;28;20061;-79
2023/05/23 12:58:49;;;;;;;3.30;1.60;;;;;;;;;;4973272;28;20031;-79
2023/05/23 13:01:15;;;;;;;4.68;1.77;;;;;;;;;;4973272;28;20027;-79
2023/05/23 13:03:42;;;;;;;3.83;1.83;;;;;;;;;;4972844;28;20070;-78
2023/05/23 13:06:08;;;;;;;5.78;1.80;;;;;;;;;;4973361;28;20064;-78
2023/05/23 13:08:34;;;;;;;4.43;1.60;;;;;;;;;;4973071;28;20125;-78
2023/05/23 13:11:01;;;;;;;5.95;1.67;;;;;;;;;;4973160;28;20067;-78
2023/05/23 13:13:28;;;;;;;6.00;1.83;;;;;;;;;;4973424;28;20042;-78
2023/05/23 13:15:55;;;;;;;6.03;2.00;;;24.80;53.40;;;;;;4973213;28;20410;-79
2023/05/23 13:18:21;;;;;;;7.28;1.40;;;;;;;;;;4973355;28;20027;-79
2023/05/23 13:20:48;;;;;;;5.10;1.50;;;;;;;;;;4972971;28;20027;-79
2023/05/23 13:23:14;;;;;;;3.92;1.45;;;;;;;;;;4973340;28;20024;-79
2023/05/23 13:25:41;;;;;;;3.35;1.60;;;;;;;;;;4972921;28;20027;-79
2023/05/23 13:28:07;;;;;;;6.35;1.80;;;;;;;;;;4973164;28;20070;-79
2023/05/23 13:30:34;;;;;;;3.20;1.50;;;;;;;;;;4973099;28;20055;-78
2023/05/23 13:33:00;;;;;;;4.32;1.65;;;;;;;;;;4973041;28;20113;-79
2023/05/23 13:35:26;;;;;;;4.72;1.60;;;;;;;;;;4972702;28;20034;-80
2023/05/23 13:37:53;;;;;;;3.00;1.40;;;;;;;;;;4972856;28;20057;-80
2023/05/23 13:40:20;;;;;;;4.97;2.00;;;25.40;53.90;;;;;;4972682;28;20039;-80
2023/05/23 13:42:51;;;;;;;5.00;1.80;;;25.50;53.50;;;;;;4972788;28;20098;-80
2023/05/23 13:45:18;;;;;;;5.03;2.28;;;;;;;;;;4973020;28;20027;-80
2023/05/23 13:47:45;;;;;;;3.97;1.63;;;;;;;;;;4973041;28;20031;-81
2023/05/23 13:50:11;;;;;;;4.50;1.45;;;;;;;;;;4973010;28;20105;-81
2023/05/23 13:52:38;;;;;;;5.93;1.50;;;;;;;;;;4973311;28;20418;-81
2023/05/23 13:55:05;;;;;;;4.30;1.30;;;;;;;;;;4972724;28;20038;-81
2023/05/23 13:57:32;;;;;;;5.78;1.77;;;;;;;;;;4973927;28;20041;-81
2023/05/23 13:59:58;;;;;;;3.67;1.40;;;;;;;;;;4978875;28;20142;-80
2023/05/23 14:02:26;;;;;;;4.90;1.65;;;;;;;;;;4978976;28;20051;-80
2023/05/23 14:04:52;;;;;;;3.05;1.80;;;;;;;;;;4978680;28;20030;-80
2023/05/23 14:07:19;;;;;;;7.45;1.50;;;;;;;;;;4976227;28;20045;-80
2023/05/23 14:09:45;;;;;;;9.55;2.08;;;;;;;;;;4976912;28;20110;-81
2023/05/23 14:12:12;;;;;;;5.00;1.88;;;;;;;;;;4975965;28;20481;-79
2023/05/23 14:14:38;;;;;;;5.60;1.40;;;;;;;;;;4975992;28;20504;-81